Time;durP1;ratioP1;P1;durP2;ratioP2;P2;SDS_P1;SDS_P2;PMS_P1;PMS_P2;Temp;Humidity;BMP_temperature;BMP_pressure;BME280_temperature;BME280_humidity;BME280_pressure;Samples;Min_cycle;Max_cycle;Signal;HPM_P1;HPM_P2
2023/05/01 00:02:07;;;;;;;;;;;13.60;61.40;;;;;;4994267;28;87377;-42
2023/05/01 00:04:32;;;;;;;;;;;13.70;61.30;;;;;;4990244;28;88132;-40
2023/05/01 00:06:58;;;;;;;;;;;13.60;61.30;;;;;;4994015;28;87102;-41
2023/05/01 00:09:26;;;;;;;;;;;13.50;61.30;;;;;;4992043;28;87442;-41
2023/05/01 00:11:51;;;;;;;;;;;13.60;61.30;;;;;;4992138;28;88047;-41
2023/05/01 00:14:17;;;;;;;;;;;13.50;61.20;;;;;;4993838;28;86493;-42
2023/05/01 00:16:42;;;;;;;;;;;13.60;61.90;;;;;;4990816;28;87084;-42
2023/05/01 00:19:08;;;;;;;;;;;13.50;61.30;;;;;;4996544;28;87820;-40
2023/05/01 00:21:33;;;;;;;;;;;13.50;61.20;;;;;;4990750;28;87961;-41
2023/05/01 00:23:59;;;;;;;;;;;13.50;61.40;;;;;;4992352;28;89375;-42
2023/05/01 00:26:29;;;;;;;;;;;13.50;61.30;;;;;;4992717;28;87326;-41
2023/05/01 00:28:54;;;;;;;;;;;13.50;61.30;;;;;;4991097;28;87305;-41
2023/05/01 00:31:20;;;;;;;;;;;13.50;61.20;;;;;;4993628;28;88033;-41
2023/05/01 00:33:45;;;;;;;;;;;13.50;61.30;;;;;;4990772;28;87132;-42
2023/05/01 00:36:11;;;;;;;;;;;13.50;61.30;;;;;;4993080;28;87459;-42
2023/05/01 00:38:36;;;;;;;;;;;13.40;61.30;;;;;;4992113;28;87295;-41
2023/05/01 00:41:02;;;;;;;;;;;13.40;61.30;;;;;;4994703;28;87135;-42
2023/05/01 00:43:27;;;;;;;;;;;13.40;61.20;;;;;;4992827;28;88109;-40
2023/05/01 00:45:53;;;;;;;;;;;13.40;61.30;;;;;;4990296;28;88189;-41
2023/05/01 00:48:18;;;;;;;;;;;13.30;61.30;;;;;;4993594;28;88230;-41
2023/05/01 00:50:44;;;;;;;;;;;13.30;61.40;;;;;;4990677;28;88197;-42
2023/05/01 00:53:11;;;;;;;;;;;13.30;61.30;;;;;;4993897;28;87115;-40
2023/05/01 00:55:37;;;;;;;;;;;13.40;61.40;;;;;;4995605;28;88775;-40
2023/05/01 00:58:03;;;;;;;;;;;13.30;61.40;;;;;;4994321;28;88319;-41
2023/05/01 01:00:29;;;;;;;;;;;13.30;62.00;;;;;;4997306;28;87191;-40
2023/05/01 01:02:54;;;;;;;;;;;13.30;61.40;;;;;;4996864;28;87388;-41
2023/05/01 01:05:20;;;;;;;;;;;13.20;61.20;;;;;;4996550;28;87148;-42
2023/05/01 01:07:58;;;;;;;;;;;13.30;61.30;;;;;;4994841;28;87621;-42
2023/05/01 01:10:27;;;;;;;;;;;13.20;61.40;;;;;;4993017;28;89155;-41
2023/05/01 01:13:07;;;;;;;;;;;13.20;61.30;;;;;;4995822;28;87535;-41
2023/05/01 01:15:40;;;;;;;;;;;13.20;61.30;;;;;;4996614;28;87697;-41
2023/05/01 01:18:12;;;;;;;;;;;13.20;61.40;;;;;;4994315;28;87175;-40
2023/05/01 01:20:56;;;;;;;;;;;13.20;61.30;;;;;;4994460;28;87108;-41
2023/05/01 01:23:30;;;;;;;;;;;13.20;61.40;;;;;;4997921;28;87348;-42
2023/05/01 01:25:59;;;;;;;;;;;13.20;61.40;;;;;;4993279;28;87321;-41
2023/05/01 01:28:39;;;;;;;;;;;13.10;61.30;;;;;;4996496;28;87173;-40
2023/05/01 01:31:11;;;;;;;;;;;13.10;61.30;;;;;;4996301;28;88115;-41
2023/05/01 01:33:48;;;;;;;;;;;13.10;61.20;;;;;;4994344;28;87032;-40
2023/05/01 01:36:30;;;;;;;;;;;13.10;61.30;;;;;;4992769;28;87803;-40
2023/05/01 01:39:06;;;;;;;;;;;13.10;61.30;;;;;;4995438;28;88584;-42
2023/05/01 01:41:33;;;;;;;;;;;13.10;61.30;;;;;;4993683;28;87110;-40
2023/05/01 01:44:19;;;;;;;;;;;13.10;61.30;;;;;;4995439;28;87469;-41
2023/05/01 01:46:46;;;;;;;;;;;13.00;61.40;;;;;;4996350;28;88788;-40
2023/05/01 01:49:15;;;;;;;;;;;13.00;61.40;;;;;;4994673;28;88968;-42
2023/05/01 01:51:41;;;;;;;;;;;13.10;61.30;;;;;;4995012;28;89642;-40
2023/05/01 01:54:08;;;;;;;;;;;13.00;61.30;;;;;;4993567;28;86937;-41
2023/05/01 01:56:34;;;;;;;;;;;13.00;61.30;;;;;;4993332;28;87083;-42
2023/05/01 01:59:00;;;;;;;;;;;12.90;61.30;;;;;;4995278;28;87225;-40
2023/05/01 02:01:26;;;;;;;;;;;12.90;61.50;;;;;;4993764;28;88037;-40
2023/05/01 02:03:52;;;;;;;;;;;12.90;61.30;;;;;;4993048;28;87749;-42
2023/05/01 02:06:18;;;;;;;;;;;12.90;61.30;;;;;;4995156;28;88023;-40
2023/05/01 02:08:45;;;;;;;;;;;12.90;61.30;;;;;;4995662;28;87217;-40
2023/05/01 02:11:13;;;;;;;;;;;12.90;61.40;;;;;;4995224;28;88187;-40
2023/05/01 02:13:39;;;;;;;;;;;12.90;61.30;;;;;;4993906;28;87110;-41
2023/05/01 02:16:05;;;;;;;;;;;12.90;61.40;;;;;;4993413;28;88905;-42
2023/05/01 02:18:32;;;;;;;;;;;12.90;61.40;;;;;;4995651;28;87678;-42
2023/05/01 02:20:58;;;;;;;;;;;12.90;61.40;;;;;;4992519;28;87165;-41
2023/05/01 02:23:26;;;;;;;;;;;12.90;61.40;;;;;;4995045;28;87381;-42
2023/05/01 02:25:52;;;;;;;;;;;12.80;61.30;;;;;;4992829;28;88187;-40
2023/05/01 02:28:21;;;;;;;;;;;12.80;61.30;;;;;;4994123;28;87111;-40
2023/05/01 02:30:47;;;;;;;;;;;12.80;61.40;;;;;;4997667;28;88942;-39
2023/05/01 02:33:12;;;;;;;;;;;12.70;61.30;;;;;;4992490;28;87189;-40
2023/05/01 02:35:43;;;;;;;;;;;12.70;61.30;;;;;;4995657;28;87361;-39
2023/05/01 02:38:12;;;;;;;;;;;12.80;61.40;;;;;;4993510;28;87870;-40
2023/05/01 02:40:38;;;;;;;;;;;12.70;61.40;;;;;;4992873;28;87067;-41
2023/05/01 02:43:05;;;;;;;;;;;12.70;61.30;;;;;;4995887;28;88873;-40
2023/05/01 02:45:33;;;;;;;;;;;12.70;61.40;;;;;;4992163;28;89371;-41
2023/05/01 02:47:59;;;;;;;;;;;12.70;61.40;;;;;;4994013;28;87088;-42
2023/05/01 02:50:25;;;;;;;;;;;12.70;61.40;;;;;;4993568;28;87997;-41
2023/05/01 02:52:51;;;;;;;;;;;12.70;61.30;;;;;;4995425;28;88100;-41
2023/05/01 02:55:17;;;;;;;;;;;12.70;61.40;;;;;;4995457;28;87288;-41
2023/05/01 02:57:42;;;;;;;;;;;12.70;61.40;;;;;;4991524;28;87966;-40
2023/05/01 03:00:12;;;;;;;;;;;12.70;61.30;;;;;;4994517;28;87212;-40
2023/05/01 03:02:38;;;;;;;;;;;12.70;61.40;;;;;;4993630;28;89002;-40
2023/05/01 03:05:04;;;;;;;;;;;12.60;61.40;;;;;;4992614;28;88171;-41
2023/05/01 03:07:33;;;;;;;;;;;12.60;61.40;;;;;;4995538;28;85997;-42
2023/05/01 03:10:01;;;;;;;;;;;12.60;61.40;;;;;;4991835;28;87988;-40
2023/05/01 03:12:27;;;;;;;;;;;12.60;61.40;;;;;;4993348;28;87012;-41
2023/05/01 03:14:53;;;;;;;;;;;12.60;61.50;;;;;;4995250;28;88080;-40
2023/05/01 03:17:18;;;;;;;;;;;12.60;61.40;;;;;;4991902;28;88013;-41
2023/05/01 03:19:44;;;;;;;;;;;12.60;61.40;;;;;;4994677;28;87097;-41
2023/05/01 03:22:10;;;;;;;;;;;12.60;61.40;;;;;;4991746;28;87470;-40
2023/05/01 03:24:35;;;;;;;;;;;12.50;61.40;;;;;;4994221;28;87884;-41
2023/05/01 03:27:01;;;;;;;;;;;12.50;61.30;;;;;;4992823;28;87125;-40
2023/05/01 03:29:28;;;;;;;;;;;12.50;61.40;;;;;;4993065;28;88000;-41
2023/05/01 03:31:53;;;;;;;;;;;12.50;61.40;;;;;;4994027;28;87124;-40
2023/05/01 03:34:19;;;;;;;;;;;12.50;61.40;;;;;;4994586;28;87264;-41
2023/05/01 03:36:44;;;;;;;;;;;12.50;61.40;;;;;;4994472;28;88083;-41
2023/05/01 03:39:10;;;;;;;;;;;12.50;61.40;;;;;;4991246;28;87925;-40
2023/05/01 03:41:35;;;;;;;;;;;12.50;61.30;;;;;;4993759;28;88339;-42
2023/05/01 03:44:01;;;;;;;;;;;12.50;61.30;;;;;;4992391;28;87989;-41
2023/05/01 03:46:26;;;;;;;;;;;12.40;61.30;;;;;;4992648;28;87641;-40
2023/05/01 03:48:52;;;;;;;;;;;12.40;61.40;;;;;;4993916;28;87261;-40
2023/05/01 03:51:17;;;;;;;;;;;12.40;61.40;;;;;;4990740;28;88022;-40
2023/05/01 03:53:43;;;;;;;;;;;12.40;61.40;;;;;;4994396;28;87495;-40
2023/05/01 03:56:08;;;;;;;;;;;12.40;61.40;;;;;;4995045;28;87431;-42
2023/05/01 03:58:35;;;;;;;;;;;12.40;61.40;;;;;;4993347;28;87685;-42
2023/05/01 04:01:01;;;;;;;;;;;12.30;61.40;;;;;;4993133;28;87317;-42
2023/05/01 04:03:27;;;;;;;;;;;12.30;61.40;;;;;;4990504;28;89328;-40
2023/05/01 04:05:52;;;;;;;;;;;12.30;61.40;;;;;;4994251;28;87296;-40
2023/05/01 04:08:18;;;;;;;;;;;12.30;61.40;;;;;;4991219;28;87416;-40
2023/05/01 04:10:44;;;;;;;;;;;12.30;61.40;;;;;;4993319;28;87910;-41
2023/05/01 04:13:10;;;;;;;;;;;12.30;61.40;;;;;;4992257;28;87444;-41
2023/05/01 04:15:37;;;;;;;;;;;12.30;61.40;;;;;;4991637;28;88885;-40
2023/05/01 04:18:03;;;;;;;;;;;12.30;61.40;;;;;;4996113;28;89337;-40
2023/05/01 04:20:28;;;;;;;;;;;12.20;61.30;;;;;;4991307;28;87404;-42
2023/05/01 04:22:54;;;;;;;;;;;12.30;61.50;;;;;;4993712;28;88100;-41
2023/05/01 04:25:19;;;;;;;;;;;12.20;61.40;;;;;;4991364;28;87115;-41
2023/05/01 04:27:45;;;;;;;;;;;12.20;61.30;;;;;;4989690;28;89426;-41
2023/05/01 04:30:10;;;;;;;;;;;12.20;61.40;;;;;;4992459;28;88092;-42
2023/05/01 04:32:36;;;;;;;;;;;12.20;61.30;;;;;;4991783;28;87230;-40
2023/05/01 04:35:03;;;;;;;;;;;12.20;61.50;;;;;;4993800;28;87282;-41
2023/05/01 04:37:29;;;;;;;;;;;12.20;61.40;;;;;;4990315;28;88018;-41
2023/05/01 04:39:54;;;;;;;;;;;12.20;61.50;;;;;;4996110;28;87190;-42
2023/05/01 04:42:20;;;;;;;;;;;12.10;61.40;;;;;;4991389;28;88136;-41
2023/05/01 04:44:46;;;;;;;;;;;12.20;61.40;;;;;;4992170;28;86437;-40
2023/05/01 04:47:11;;;;;;;;;;;12.20;61.50;;;;;;4993132;28;88021;-40
2023/05/01 04:49:37;;;;;;;;;;;12.10;61.50;;;;;;4990284;28;88060;-41
2023/05/01 04:52:03;;;;;;;;;;;12.10;61.50;;;;;;4993170;28;88084;-41
2023/05/01 04:54:28;;;;;;;;;;;12.10;61.50;;;;;;4991173;28;88229;-41
2023/05/01 04:56:54;;;;;;;;;;;12.20;61.50;;;;;;4992255;28;88101;-42
2023/05/01 04:59:19;;;;;;;;;;;12.10;61.50;;;;;;4992062;28;87326;-40
2023/05/01 05:01:45;;;;;;;;;;;12.10;61.60;;;;;;4993936;28;87401;-41
2023/05/01 05:04:10;;;;;;;;;;;12.10;61.60;;;;;;4993490;28;87105;-41
2023/05/01 05:06:36;;;;;;;;;;;12.10;61.60;;;;;;4990443;28;87040;-41
2023/05/01 05:09:01;;;;;;;;;;;12.10;61.60;;;;;;4993174;28;87137;-41
2023/05/01 05:11:27;;;;;;;;;;;12.10;61.70;;;;;;4991044;28;87095;-42
2023/05/01 05:13:53;;;;;;;;;;;12.10;61.70;;;;;;4991947;28;87489;-42
2023/05/01 05:16:18;;;;;;;;;;;12.10;61.50;;;;;;4990940;28;89124;-40
2023/05/01 05:18:44;;;;;;;;;;;12.10;61.60;;;;;;4990857;28;87037;-41
2023/05/01 05:21:09;;;;;;;;;;;12.10;61.60;;;;;;4993212;28;88615;-41
2023/05/01 05:23:35;;;;;;;;;;;12.10;61.70;;;;;;4992630;28;88065;-41
2023/05/01 05:26:00;;;;;;;;;;;12.10;61.70;;;;;;4992689;28;87358;-41
2023/05/01 05:28:27;;;;;;;;;;;12.10;61.80;;;;;;4990601;28;88396;-40
2023/05/01 05:30:53;;;;;;;;;;;12.10;61.80;;;;;;4991114;28;86992;-40
2023/05/01 05:33:18;;;;;;;;;;;12.10;61.80;;;;;;4992939;28;87340;-42
2023/05/01 05:35:44;;;;;;;;;;;12.10;61.80;;;;;;4989817;28;87908;-42
2023/05/01 05:38:09;;;;;;;;;;;12.10;61.80;;;;;;4990172;28;87151;-41
2023/05/01 05:40:35;;;;;;;;;;;12.10;61.80;;;;;;4995459;28;87940;-42
2023/05/01 05:43:00;;;;;;;;;;;12.10;61.80;;;;;;4996728;28;89161;-41
2023/05/01 05:45:26;;;;;;;;;;;12.10;61.90;;;;;;4994810;28;87171;-41
2023/05/01 05:47:51;;;;;;;;;;;12.10;61.90;;;;;;4995144;28;88122;-42
2023/05/01 05:50:17;;;;;;;;;;;12.10;61.90;;;;;;4993354;28;87254;-41
2023/05/01 05:52:42;;;;;;;;;;;12.00;62.00;;;;;;4996341;28;87358;-42
2023/05/01 05:55:08;;;;;;;;;;;12.10;62.10;;;;;;4993018;28;87161;-42
2023/05/01 05:57:36;;;;;;;;;;;12.10;62.20;;;;;;4995809;28;86844;-41
2023/05/01 06:00:04;;;;;;;;;;;12.10;62.20;;;;;;4995088;28;86899;-40
2023/05/01 06:02:30;;;;;;;;;;;12.10;62.20;;;;;;4993164;28;88033;-41
2023/05/01 06:04:56;;;;;;;;;;;12.10;62.20;;;;;;4998605;28;88080;-42
2023/05/01 06:07:22;;;;;;;;;;;12.10;62.20;;;;;;4992962;28;88051;-40
2023/05/01 06:09:48;;;;;;;;;;;12.10;62.20;;;;;;4995032;28;87704;-41
2023/05/01 06:12:13;;;;;;;;;;;12.10;62.20;;;;;;4994384;28;87496;-42
2023/05/01 06:14:39;;;;;;;;;;;12.10;62.30;;;;;;4993390;28;88229;-41
2023/05/01 06:17:05;;;;;;;;;;;12.10;62.30;;;;;;4995542;28;87105;-42
2023/05/01 06:19:31;;;;;;;;;;;12.10;62.50;;;;;;4992385;28;88590;-41
2023/05/01 06:21:57;;;;;;;;;;;12.10;62.60;;;;;;4996001;28;87273;-42
2023/05/01 06:24:22;;;;;;;;;;;12.10;62.70;;;;;;4993555;28;87040;-40
2023/05/01 06:26:48;;;;;;;;;;;12.10;62.80;;;;;;4996841;28;87588;-42
2023/05/01 06:29:13;;;;;;;;;;;12.10;62.80;;;;;;4994127;28;88093;-41
2023/05/01 06:31:39;;;;;;;;;;;12.10;63.00;;;;;;4993173;28;88494;-41
2023/05/01 06:34:04;;;;;;;;;;;12.10;63.10;;;;;;4993802;28;90579;-42
2023/05/01 06:36:30;;;;;;;;;;;12.10;63.00;;;;;;4992112;28;86877;-41
2023/05/01 06:38:55;;;;;;;;;;;12.10;63.00;;;;;;4995194;28;86981;-40
2023/05/01 06:41:21;;;;;;;;;;;12.10;63.20;;;;;;4993358;28;88134;-41
2023/05/01 06:43:47;;;;;;;;;;;12.10;63.20;;;;;;4993518;28;87504;-42
2023/05/01 06:46:12;;;;;;;;;;;12.10;63.20;;;;;;4995037;28;87358;-40
2023/05/01 06:48:38;;;;;;;;;;;12.10;63.00;;;;;;4994833;28;89583;-41
2023/05/01 06:51:03;;;;;;;;;;;12.10;63.10;;;;;;4994600;28;87386;-41
2023/05/01 06:53:29;;;;;;;;;;;12.10;63.00;;;;;;4991314;28;90061;-42
2023/05/01 06:55:55;;;;;;;;;;;12.10;63.30;;;;;;4994058;28;87259;-40
2023/05/01 06:58:20;;;;;;;;;;;12.10;63.10;;;;;;4993274;28;87222;-40
2023/05/01 07:00:46;;;;;;;;;;;12.20;63.10;;;;;;4992813;28;89285;-41
2023/05/01 07:03:12;;;;;;;;;;;12.20;63.20;;;;;;4994745;28;87112;-41
2023/05/01 07:05:39;;;;;;;;;;;12.20;63.20;;;;;;4991664;28;88987;-42
2023/05/01 07:08:05;;;;;;;;;;;12.20;63.20;;;;;;4994416;28;87996;-41
2023/05/01 07:10:31;;;;;;;;;;;12.20;63.30;;;;;;4996240;28;86336;-41
2023/05/01 07:12:56;;;;;;;;;;;12.20;63.20;;;;;;4993027;28;87222;-40
2023/05/01 07:15:22;;;;;;;;;;;12.20;63.30;;;;;;4993549;28;87171;-40
2023/05/01 07:17:49;;;;;;;;;;;12.20;63.30;;;;;;4991345;28;88816;-42
2023/05/01 07:20:15;;;;;;;;;;;12.30;63.40;;;;;;4994741;28;88020;-41
2023/05/01 07:22:41;;;;;;;;;;;12.20;63.40;;;;;;4992087;28;87010;-42
2023/05/01 07:25:07;;;;;;;;;;;12.20;63.40;;;;;;4993826;28;87465;-41
2023/05/01 07:27:33;;;;;;;;;;;12.30;63.40;;;;;;4993098;28;88110;-42
2023/05/01 07:29:59;;;;;;;;;;;12.30;63.30;;;;;;4992221;28;87307;-40
2023/05/01 07:32:25;;;;;;;;;;;12.20;63.40;;;;;;4997117;28;87024;-41
2023/05/01 07:34:51;;;;;;;;;;;12.30;63.50;;;;;;4991838;28;86434;-40
2023/05/01 07:37:17;;;;;;;;;;;12.30;63.50;;;;;;4994316;28;86971;-41
2023/05/01 07:39:43;;;;;;;;;;;12.20;63.30;;;;;;4992264;28;89311;-41
2023/05/01 07:42:08;;;;;;;;;;;12.30;63.30;;;;;;4991909;28;88057;-40
2023/05/01 07:44:34;;;;;;;;;;;12.30;63.00;;;;;;4993968;28;88862;-41
2023/05/01 07:47:03;;;;;;;;;;;12.30;63.20;;;;;;4990912;28;88410;-41
2023/05/01 07:49:29;;;;;;;;;;;12.30;63.20;;;;;;4991653;28;87187;-41
2023/05/01 07:51:54;;;;;;;;;;;12.30;63.40;;;;;;4996293;28;87188;-41
2023/05/01 07:54:21;;;;;;;;;;;12.30;63.40;;;;;;4992788;28;87094;-40
2023/05/01 07:56:46;;;;;;;;;;;12.30;63.30;;;;;;4992075;28;87518;-42
2023/05/01 07:59:12;;;;;;;;;;;12.40;63.70;;;;;;4991697;28;87370;-41
2023/05/01 08:01:37;;;;;;;;;;;12.40;66.10;;;;;;4990354;28;87001;-41
2023/05/01 08:04:03;;;;;;;;;;;12.60;68.00;;;;;;4993128;28;87547;-40
2023/05/01 08:06:29;;;;;;;;;;;12.70;68.40;;;;;;4990686;28;89240;-40
2023/05/01 08:08:54;;;;;;;;;;;12.80;68.10;;;;;;4991849;28;87480;-40
2023/05/01 08:11:20;;;;;;;;;;;12.90;67.40;;;;;;4991962;28;87382;-40
2023/05/01 08:13:45;;;;;;;;;;;12.80;66.60;;;;;;4993272;28;89219;-40
2023/05/01 08:16:11;;;;;;;;;;;12.90;66.90;;;;;;4993108;28;87549;-40
2023/05/01 08:18:36;;;;;;;;;;;12.90;67.40;;;;;;4989141;28;87481;-40
2023/05/01 08:21:02;;;;;;;;;;;12.90;66.90;;;;;;4993298;28;87083;-40
2023/05/01 08:23:28;;;;;;;;;;;12.90;67.20;;;;;;4991906;28;87383;-40
2023/05/01 08:25:53;;;;;;;;;;;12.90;67.20;;;;;;4990315;28;89298;-40
2023/05/01 08:28:19;;;;;;;;;;;12.90;68.00;;;;;;4991412;28;87157;-39
2023/05/01 08:30:45;;;;;;;;;;;12.90;69.30;;;;;;4988295;28;88028;-42
2023/05/01 08:33:11;;;;;;;;;;;13.00;68.70;;;;;;4991339;28;89909;-40
2023/05/01 08:35:36;;;;;;;;;;;13.00;68.40;;;;;;4992372;28;87598;-42
2023/05/01 08:38:02;;;;;;;;;;;13.10;68.50;;;;;;4989241;28;90010;-38
2023/05/01 08:40:30;;;;;;;;;;;13.10;68.80;;;;;;4990783;28;87474;-40
2023/05/01 08:42:57;;;;;;;;;;;13.10;68.60;;;;;;4989283;28;89173;-41
2023/05/01 08:45:22;;;;;;;;;;;13.00;68.30;;;;;;4991696;28;89337;-42
2023/05/01 08:47:48;;;;;;;;;;;13.20;68.30;;;;;;4989505;28;86435;-41
2023/05/01 08:50:15;;;;;;;;;;;13.10;68.00;;;;;;4991703;28;87673;-40
2023/05/01 08:52:41;;;;;;;;;;;13.10;67.20;;;;;;4990160;28;88074;-40
2023/05/01 08:55:10;;;;;;;;;;;13.10;67.10;;;;;;4989211;28;88053;-40
2023/05/01 08:57:36;;;;;;;;;;;13.10;67.10;;;;;;4994781;28;88908;-40
2023/05/01 09:00:03;;;;;;;;;;;13.10;67.10;;;;;;4989407;28;87533;-40
2023/05/01 09:02:30;;;;;;;;;;;13.10;67.20;;;;;;4991068;28;88995;-40
2023/05/01 09:04:55;;;;;;;;;;;13.20;67.10;;;;;;4990234;28;87993;-40
2023/05/01 09:07:21;;;;;;;;;;;13.20;66.70;;;;;;4989916;28;87599;-39
2023/05/01 09:09:46;;;;;;;;;;;13.20;66.70;;;;;;4991412;28;87341;-40
2023/05/01 09:12:12;;;;;;;;;;;13.20;67.40;;;;;;4988439;28;87399;-40
2023/05/01 09:14:38;;;;;;;;;;;13.30;68.40;;;;;;4993337;28;87087;-40
2023/05/01 09:17:03;;;;;;;;;;;13.30;67.00;;;;;;4993044;28;87131;-40
2023/05/01 09:19:29;;;;;;;;;;;13.30;66.50;;;;;;4996146;28;88995;-40
2023/05/01 09:21:55;;;;;;;;;;;13.40;66.60;;;;;;4994390;28;90066;-40
2023/05/01 09:24:26;;;;;;;;;;;13.50;66.40;;;;;;4991918;28;88005;-40
2023/05/01 09:26:52;;;;;;;;;;;13.50;66.30;;;;;;4992214;28;86991;-40
2023/05/01 09:29:36;;;;;;;;;;;13.60;65.60;;;;;;4994898;28;88909;-40
2023/05/01 09:32:20;;;;;;;;;;;13.60;65.90;;;;;;4991609;28;88002;-41
2023/05/01 09:34:46;;;;;;;;;;;13.70;65.80;;;;;;4991775;28;87218;-40
2023/05/01 09:37:13;;;;;;;;;;;13.70;66.50;;;;;;4992981;28;87863;-40
2023/05/01 09:39:39;;;;;;;;;;;13.70;65.40;;;;;;4994309;28;88024;-40
2023/05/01 09:42:05;;;;;;;;;;;13.80;66.60;;;;;;4996844;28;87075;-41
2023/05/01 09:44:31;;;;;;;;;;;13.90;66.00;;;;;;4992185;28;88892;-40
2023/05/01 09:46:56;;;;;;;;;;;14.00;64.90;;;;;;4995215;28;87118;-40
2023/05/01 09:49:42;;;;;;;;;;;14.00;64.90;;;;;;4991936;28;88802;-40
2023/05/01 09:52:11;;;;;;;;;;;14.10;64.70;;;;;;4991786;28;87800;-40
2023/05/01 09:54:36;;;;;;;;;;;14.20;62.80;;;;;;4992469;28;87048;-40
2023/05/01 09:57:03;;;;;;;;;;;14.20;62.30;;;;;;4995133;28;87462;-40
2023/05/01 09:59:30;;;;;;;;;;;14.30;62.70;;;;;;4992917;28;89506;-41
2023/05/01 10:01:55;;;;;;;;;;;14.30;62.30;;;;;;4996287;28;86640;-40
2023/05/01 10:04:31;;;;;;;;;;;14.30;61.80;;;;;;4993951;28;88097;-41
2023/05/01 10:06:57;;;;;;;;;;;14.20;61.80;;;;;;4992434;28;87047;-39
2023/05/01 10:09:25;;;;;;;;;;;14.30;62.10;;;;;;4992349;28;88797;-39
2023/05/01 10:11:53;;;;;;;;;;;14.30;63.20;;;;;;4994456;28;88255;-40
2023/05/01 10:14:19;;;;;;;;;;;14.40;62.50;;;;;;4990345;28;87810;-41
2023/05/01 10:16:45;;;;;;;;;;;14.40;62.40;;;;;;4994278;28;89036;-44
2023/05/01 10:19:11;;;;;;;;;;;14.40;61.70;;;;;;4991812;28;88061;-40
2023/05/01 10:21:36;;;;;;;;;;;14.50;61.20;;;;;;4992629;28;87058;-41
2023/05/01 10:24:02;;;;;;;;;;;14.50;60.70;;;;;;4996646;28;88746;-41
2023/05/01 10:26:28;;;;;;;;;;;14.60;61.60;;;;;;4991426;28;86412;-42
2023/05/01 10:28:57;;;;;;;;;;;14.60;59.80;;;;;;4994614;28;87577;-40
2023/05/01 10:31:23;;;;;;;;;;;14.60;59.80;;;;;;4991639;28;89551;-40
2023/05/01 10:33:49;;;;;;;;;;;14.70;59.30;;;;;;4992215;28;88051;-41
2023/05/01 10:36:16;;;;;;;;;;;14.60;59.20;;;;;;4992802;28;89774;-40
2023/05/01 10:38:46;;;;;;;;;;;14.60;58.80;;;;;;4991684;28;88263;-40
2023/05/01 10:41:13;;;;;;;;;;;14.70;58.80;;;;;;4991084;28;87532;-40
2023/05/01 10:43:38;;;;;;;;;;;14.70;59.20;;;;;;4993501;28;87973;-40
2023/05/01 10:46:06;;;;;;;;;;;14.70;59.00;;;;;;4995880;28;88515;-41
2023/05/01 10:48:38;;;;;;;;;;;14.80;59.20;;;;;;4992604;28;87718;-40
2023/05/01 10:51:12;;;;;;;;;;;14.80;58.50;;;;;;4992013;28;87162;-40
2023/05/01 10:53:39;;;;;;;;;;;14.90;58.90;;;;;;4993054;28;87109;-41
2023/05/01 10:56:05;;;;;;;;;;;15.00;58.40;;;;;;4994219;28;87353;-40
2023/05/01 10:58:37;;;;;;;;;;;15.10;57.90;;;;;;4990819;28;90194;-40
2023/05/01 11:01:23;;;;;;;;;;;15.20;57.60;;;;;;4992237;28;87120;-40
2023/05/01 11:03:48;;;;;;;;;;;15.30;58.60;;;;;;4993363;28;87700;-40
2023/05/01 11:06:14;;;;;;;;;;;15.40;57.80;;;;;;4992033;28;87950;-41
2023/05/01 11:08:40;;;;;;;;;;;15.30;58.40;;;;;;4994654;28;87068;-38
2023/05/01 11:11:20;;;;;;;;;;;15.30;58.00;;;;;;4989963;28;90068;-39
2023/05/01 11:13:58;;;;;;;;;;;15.10;58.80;;;;;;4990431;28;87483;-39
2023/05/01 11:16:36;;;;;;;;;;;15.10;59.30;;;;;;4990263;28;87230;-39
2023/05/01 11:19:05;;;;;;;;;;;15.10;59.10;;;;;;4991199;28;89389;-39
2023/05/01 11:21:32;;;;;;;;;;;15.20;59.30;;;;;;4990096;28;87099;-39
2023/05/01 11:23:58;;;;;;;;;;;15.10;59.40;;;;;;4993030;28;88484;-38
2023/05/01 11:26:24;;;;;;;;;;;15.20;59.40;;;;;;4990259;28;87972;-39
2023/05/01 11:28:52;;;;;;;;;;;15.20;59.50;;;;;;4991968;28;87094;-38
2023/05/01 11:31:18;;;;;;;;;;;15.20;59.70;;;;;;4994399;28;87174;-39
2023/05/01 11:33:44;;;;;;;;;;;15.10;59.80;;;;;;4991242;28;86991;-39
2023/05/01 11:36:09;;;;;;;;;;;15.10;59.80;;;;;;4993073;28;88242;-39
2023/05/01 11:38:35;;;;;;;;;;;15.10;59.90;;;;;;4989740;28;89467;-39
2023/05/01 11:41:03;;;;;;;;;;;15.20;59.90;;;;;;4992682;28;86303;-39
2023/05/01 11:43:29;;;;;;;;;;;15.20;59.90;;;;;;4991703;28;88191;-39
2023/05/01 11:46:00;;;;;;;;;;;15.20;60.00;;;;;;4991306;28;88220;-38
2023/05/01 11:48:26;;;;;;;;;;;15.20;60.20;;;;;;4992991;28;88492;-39
2023/05/01 11:50:52;;;;;;;;;;;15.20;60.30;;;;;;4992819;28;88412;-38
2023/05/01 11:53:17;;;;;;;;;;;15.20;60.30;;;;;;4991772;28;87472;-39
2023/05/01 11:55:43;;;;;;;;;;;15.20;60.50;;;;;;4991563;28;87685;-42
2023/05/01 11:58:10;;;;;;;;;;;15.10;59.50;;;;;;4988613;28;88188;-42
2023/05/01 12:00:36;;;;;;;;;;;15.20;58.50;;;;;;4992517;28;87111;-41
2023/05/01 12:03:05;;;;;;;;;;;15.30;56.30;;;;;;4989380;28;89082;-40
2023/05/01 12:05:31;;;;;;;;;;;15.30;56.70;;;;;;4991680;28;87641;-39
2023/05/01 12:08:07;;;;;;;;;;;15.20;58.20;;;;;;4990232;28;87153;-41
2023/05/01 12:10:33;;;;;;;;;;;15.30;58.90;;;;;;4988766;28;87382;-39
2023/05/01 12:12:59;;;;;;;;;;;15.30;58.90;;;;;;4994228;28;89112;-40
2023/05/01 12:15:25;;;;;;;;;;;15.30;58.40;;;;;;4989768;28;89116;-40
2023/05/01 12:17:51;;;;;;;;;;;15.40;58.30;;;;;;4990853;28;88190;-42
2023/05/01 12:20:17;;;;;;;;;;;15.30;58.70;;;;;;4991121;28;87086;-41
2023/05/01 12:22:49;;;;;;;;;;;15.40;58.40;;;;;;4989147;28;88786;-43
2023/05/01 12:25:16;;;;;;;;;;;15.40;58.10;;;;;;4989362;28;89462;-40
2023/05/01 12:27:44;;;;;;;;;;;15.40;59.10;;;;;;4991274;28;87143;-44
2023/05/01 12:30:10;;;;;;;;;;;15.50;58.90;;;;;;4992328;28;87469;-41
2023/05/01 12:32:35;;;;;;;;;;;15.50;59.30;;;;;;4988960;28;88055;-38
2023/05/01 12:35:11;;;;;;;;;;;15.50;59.00;;;;;;4995222;28;88316;-41
2023/05/01 12:37:36;;;;;;;;;;;15.60;61.20;;;;;;4990267;28;89380;-41
2023/05/01 12:40:04;;;;;;;;;;;15.70;59.70;;;;;;4990344;28;87241;-42
2023/05/01 12:42:29;;;;;;;;;;;15.80;58.80;;;;;;4992508;28;87140;-39
2023/05/01 12:44:59;;;;;;;;;;;15.80;59.00;;;;;;4988640;28;88624;-40
2023/05/01 12:47:25;;;;;;;;;;;15.90;58.90;;;;;;4991020;28;87220;-40
2023/05/01 12:49:59;;;;;;;;;;;15.80;58.50;;;;;;4989720;28;88887;-40
2023/05/01 12:52:26;;;;;;;;;;;15.80;58.80;;;;;;4988564;28;88265;-39
2023/05/01 12:55:00;;;;;;;;;;;15.90;59.00;;;;;;4991872;28;86422;-40
2023/05/01 12:57:26;;;;;;;;;;;15.90;58.80;;;;;;4993510;28;87091;-40
2023/05/01 12:59:57;;;;;;;;;;;15.90;58.80;;;;;;4989312;28;87624;-42
2023/05/01 13:02:28;;;;;;;;;;;15.90;57.10;;;;;;4989015;28;88027;-39
2023/05/01 13:05:04;;;;;;;;;;;15.80;57.20;;;;;;4991145;28;89470;-39
2023/05/01 13:07:29;;;;;;;;;;;15.80;56.90;;;;;;4992653;28;87169;-39
2023/05/01 13:09:56;;;;;;;;;;;15.80;56.90;;;;;;4988929;28;87829;-39
2023/05/01 13:12:23;;;;;;;;;;;15.80;56.20;;;;;;4989805;28;89105;-39
2023/05/01 13:14:49;;;;;;;;;;;15.80;57.40;;;;;;4989580;28;87170;-42
2023/05/01 13:17:21;;;;;;;;;;;15.90;58.30;;;;;;4989666;28;87466;-41
2023/05/01 13:19:53;;;;;;;;;;;15.90;58.80;;;;;;4992454;28;87214;-40
2023/05/01 13:22:27;;;;;;;;;;;15.90;58.80;;;;;;4990970;28;88122;-41
2023/05/01 13:24:53;;;;;;;;;;;16.00;60.30;;;;;;4991581;28;89536;-41
2023/05/01 13:27:19;;;;;;;;;;;16.00;59.40;;;;;;4988112;28;88088;-42
2023/05/01 13:29:50;;;;;;;;;;;16.00;60.10;;;;;;4991014;28;88456;-41
2023/05/01 13:32:16;;;;;;;;;;;16.00;60.50;;;;;;4990702;28;88185;-41
2023/05/01 13:34:42;;;;;;;;;;;16.00;60.60;;;;;;4989242;28;87071;-42
2023/05/01 13:37:08;;;;;;;;;;;16.00;61.10;;;;;;4992113;28;87459;-43
2023/05/01 13:39:35;;;;;;;;;;;16.10;61.30;;;;;;4988663;28;87832;-41
2023/05/01 13:42:02;;;;;;;;;;;16.10;61.60;;;;;;4993670;28;87505;-40
2023/05/01 13:44:28;;;;;;;;;;;16.00;61.80;;;;;;4990863;28;86414;-39
2023/05/01 13:46:53;;;;;;;;;;;16.00;61.10;;;;;;4989340;28;87079;-39
2023/05/01 13:49:21;;;;;;;;;;;16.00;59.80;;;;;;4992215;28;87012;-43
2023/05/01 13:51:47;;;;;;;;;;;16.10;59.90;;;;;;4988361;28;89027;-41
2023/05/01 13:54:13;;;;;;;;;;;16.10;58.90;;;;;;4990956;28;86986;-43
2023/05/01 13:56:40;;;;;;;;;;;16.10;57.60;;;;;;4989684;28;87352;-43
2023/05/01 13:59:09;;;;;;;;;;;16.10;57.60;;;;;;4988491;28;88057;-40
2023/05/01 14:01:37;;;;;;;;;;;16.00;56.00;;;;;;4997413;28;87166;-41
2023/05/01 14:04:08;;;;;;;;;;;16.00;56.30;;;;;;4991337;28;88569;-41
2023/05/01 14:06:34;;;;;;;;;;;16.00;55.60;;;;;;4992654;28;86890;-40
2023/05/01 14:09:00;;;;;;;;;;;16.10;56.40;;;;;;4994659;28;87342;-41
2023/05/01 14:11:25;;;;;;;;;;;16.10;57.40;;;;;;4991344;28;88218;-40
2023/05/01 14:13:58;;;;;;;;;;;16.10;58.30;;;;;;4995094;28;87399;-40
2023/05/01 14:16:25;;;;;;;;;;;16.20;57.80;;;;;;4992148;28;87957;-44